Time;durP1;ratioP1;P1;durP2;ratioP2;P2;SDS_P1;SDS_P2;PMS_P1;PMS_P2;Temp;Humidity;BMP_temperature;BMP_pressure;BME280_temperature;BME280_humidity;BME280_pressure;Samples;Min_cycle;Max_cycle;Signal;HPM_P1;HPM_P2
2022/07/28 00:01:04;;;;;;;5.47;4.20;;;;;;;18.92;100.00;100062.19;1726010;82;21153;-69
2022/07/28 00:03:30;;;;;;;6.37;3.70;;;;;;;18.91;100.00;100055.16;1725901;82;21541;-68
2022/07/28 00:05:57;;;;;;;6.40;4.50;;;;;;;18.90;100.00;100056.11;1725960;83;21002;-70
2022/07/28 00:08:23;;;;;;;4.87;3.83;;;;;;;18.87;100.00;100051.00;1725838;83;21093;-69
2022/07/28 00:10:51;;;;;;;5.40;3.90;;;;;;;18.79;100.00;100050.69;1725762;83;21081;-69
2022/07/28 00:13:18;;;;;;;6.58;3.42;;;;;;;18.74;100.00;100047.48;1726022;82;21200;-69
2022/07/28 00:15:46;;;;;;;7.62;3.65;;;;;;;18.71;100.00;100057.89;1725946;82;21021;-67
2022/07/28 00:18:12;;;;;;;5.25;3.95;;;;;;;18.69;100.00;100062.97;1726077;83;21558;-68
2022/07/28 00:20:39;;;;;;;4.53;3.10;;;;;;;18.70;100.00;100070.00;1726005;82;21001;-70
2022/07/28 00:23:07;;;;;;;3.98;3.50;;;;;;;18.69;100.00;100066.98;1726175;82;21108;-67
2022/07/28 00:25:36;;;;;;;6.95;3.58;;;;;;;18.66;100.00;100067.56;1725663;82;21680;-71
2022/07/28 00:28:02;;;;;;;4.33;3.42;;;;;;;18.66;100.00;100071.56;1725777;83;21021;-70
2022/07/28 00:30:29;;;;;;;5.05;3.25;;;;;;;18.66;100.00;100074.72;1725994;82;21100;-68
2022/07/28 00:32:56;;;;;;;3.67;3.30;;;;;;;18.66;100.00;100074.72;1726103;83;21533;-68
2022/07/28 00:35:22;;;;;;;3.80;3.08;;;;;;;18.65;100.00;100075.17;1726028;83;21625;-67
2022/07/28 00:37:49;;;;;;;5.70;3.40;;;;;;;18.65;100.00;100071.17;1726083;82;21046;-69
2022/07/28 00:40:15;;;;;;;4.42;3.27;;;;;;;18.65;100.00;100073.84;1725609;82;21040;-68
2022/07/28 00:42:42;;;;;;;4.65;3.77;;;;;;;18.70;100.00;100067.33;1726053;83;21073;-69
2022/07/28 00:45:12;;;;;;;5.67;3.40;;;;;;;18.72;100.00;100058.73;1725920;82;21085;-68
2022/07/28 00:47:38;;;;;;;7.95;4.12;;;;;;;18.73;100.00;100057.31;1709749;83;21071;-68
2022/07/28 00:50:07;;;;;;;5.10;3.22;;;;;;;18.73;100.00;100059.12;1725786;83;21168;-68
2022/07/28 00:52:35;;;;;;;6.42;3.80;;;;;;;18.72;100.00;100054.73;1726240;82;21494;-68
2022/07/28 00:55:04;;;;;;;5.15;3.70;;;;;;;18.73;100.00;100065.80;1700471;83;21627;-67
2022/07/28 00:57:31;;;;;;;4.28;3.47;;;;;;;18.72;100.00;100055.58;1691571;84;21061;-68
2022/07/28 00:59:58;;;;;;;5.75;4.00;;;;;;;18.72;100.00;100062.74;1691441;83;21072;-69
2022/07/28 01:02:24;;;;;;;5.97;4.12;;;;;;;18.71;100.00;100061.05;1724826;83;21169;-68
2022/07/28 01:04:50;;;;;;;5.42;4.17;;;;;;;18.70;100.00;100070.00;1726195;83;21076;-68
2022/07/28 01:07:31;;;;;;;5.35;3.83;;;;;;;18.68;100.00;100067.92;1725819;82;21057;-69
2022/07/28 01:10:14;;;;;;;4.85;2.85;;;;;;;18.69;100.00;100066.48;1726182;83;21061;-70
2022/07/28 01:12:52;;;;;;;8.80;4.22;;;;;;;18.68;100.00;100067.47;1725834;82;21112;-68
2022/07/28 01:15:33;;;;;;;9.10;4.72;;;;;;;18.69;100.00;100069.64;1725339;82;21140;-68
2022/07/28 01:18:17;;;;;;;7.22;4.22;;;;;;;18.66;100.00;100076.90;1725104;82;21033;-68
2022/07/28 01:20:48;;;;;;;7.42;4.42;;;;;;;18.65;100.00;100080.51;1690534;84;21081;-68
2022/07/28 01:23:32;;;;;;;8.18;4.72;;;;;;;18.64;100.00;100082.82;1690994;84;21068;-69
2022/07/28 01:26:44;;;;;;;6.80;4.80;;;;;;;18.61;100.00;100080.84;1689418;84;21041;-69
2022/07/28 01:30:02;;;;;;;12.63;4.90;;;;;;;18.60;100.00;100083.14;1678396;85;21216;-68
2022/07/28 01:32:36;;;;;;;6.33;4.37;;;;;;;18.52;100.00;100072.16;1678475;85;21053;-68
2022/07/28 01:35:24;;;;;;;7.35;4.78;;;;;;;18.46;100.00;100076.12;1657565;85;21579;-68
2022/07/28 01:37:54;;;;;;;12.45;5.83;;;;;;;18.40;100.00;100068.55;1678784;85;21018;-69
2022/07/28 01:40:24;;;;;;;13.78;5.95;;;;;;;18.33;100.00;100073.45;1678574;85;21655;-67
2022/07/28 01:42:55;;;;;;;9.88;5.80;;;;;;;18.23;100.00;100068.41;1678648;85;21237;-69
2022/07/28 01:45:22;;;;;;;10.25;6.42;;;;;;;18.16;100.00;100074.65;1678576;85;21108;-69
2022/07/28 01:47:50;;;;;;;12.07;6.25;;;;;;;18.09;100.00;100085.84;1661765;83;21527;-68
2022/07/28 01:50:16;;;;;;;10.18;6.53;;;;;;;17.99;100.00;100075.83;1712803;82;21097;-67
2022/07/28 01:52:45;;;;;;;12.82;6.12;;;;;;;17.94;100.00;100079.26;1702822;83;21121;-67
2022/07/28 01:55:12;;;;;;;10.82;6.40;;;;;;;17.89;100.00;100084.05;1702756;82;21972;-69
2022/07/28 01:57:40;;;;;;;10.43;5.95;;;;;;;17.82;100.00;100084.10;1712927;82;21106;-68
2022/07/28 02:00:09;;;;;;;9.10;5.87;;;;;;;17.81;100.00;100083.74;1712225;83;21095;-68
2022/07/28 02:02:42;;;;;;;9.05;5.37;;;;;;;17.77;100.00;100083.53;1684525;85;21038;-68
2022/07/28 02:05:15;;;;;;;10.30;5.93;;;;;;;17.72;100.00;100098.98;1684754;85;21042;-68
2022/07/28 02:07:43;;;;;;;11.68;6.50;;;;;;;17.66;100.00;100104.22;1684401;84;22013;-68
2022/07/28 02:10:13;;;;;;;10.95;6.05;;;;;;;17.61;100.00;100101.02;1684580;84;21027;-68
2022/07/28 02:12:39;;;;;;;11.50;6.17;;;;;;;17.58;100.00;100102.56;1684279;85;21112;-69
2022/07/28 02:15:10;;;;;;;13.18;6.08;;;;;;;17.52;100.00;100105.14;1684130;84;21054;-69
2022/07/28 02:17:41;;;;;;;7.17;5.53;;;;;;;17.49;100.00;100108.50;1684177;84;21097;-69
2022/07/28 02:20:11;;;;;;;9.25;6.12;;;;;;;17.46;100.00;100115.34;1684297;85;21115;-68
2022/07/28 02:22:40;;;;;;;9.05;5.62;;;;;;;17.44;100.00;100113.25;1674326;85;21073;-68
2022/07/28 02:25:07;;;;;;;13.13;6.15;;;;;;;17.40;100.00;100112.13;1684068;85;21101;-69
2022/07/28 02:27:49;;;;;;;9.53;5.67;;;;;;;17.38;100.00;100111.86;1692185;84;21639;-69
2022/07/28 02:30:28;;;;;;;8.33;5.67;;;;;;;17.39;100.00;100112.22;1696453;84;21053;-68
2022/07/28 02:33:06;;;;;;;10.50;5.80;;;;;;;17.36;100.00;100111.95;1660298;86;22210;-68
2022/07/28 02:36:01;;;;;;;7.78;5.28;;;;;;;17.34;100.00;100111.67;1663110;86;21605;-67
2022/07/28 02:38:31;;;;;;;9.58;5.50;;;;;;;17.30;100.00;100104.39;1662952;86;21585;-69
2022/07/28 02:41:04;;;;;;;8.03;5.35;;;;;;;17.29;100.00;100106.66;1663005;86;21097;-68
2022/07/28 02:43:31;;;;;;;8.73;5.35;;;;;;;17.28;100.00;100106.78;1663253;86;21139;-70
2022/07/28 02:46:04;;;;;;;7.65;4.80;;;;;;;17.25;100.00;100116.27;1663366;86;21005;-68
2022/07/28 02:48:35;;;;;;;9.50;5.53;;;;;;;17.23;100.00;100119.05;1663178;86;21064;-68
2022/07/28 02:51:01;;;;;;;10.40;5.60;;;;;;;17.23;100.00;100127.48;1663295;86;21015;-68
2022/07/28 02:53:28;;;;;;;7.03;4.85;;;;;;;17.22;100.00;100126.64;1665414;84;21064;-68
2022/07/28 02:55:54;;;;;;;10.03;5.20;;;;;;;17.21;100.00;100134.27;1690861;84;21060;-67
2022/07/28 02:58:23;;;;;;;6.15;5.40;;;;;;;17.24;100.00;100132.72;1691208;84;21185;-68
2022/07/28 03:00:52;;;;;;;6.62;4.87;;;;;;;17.26;100.00;100133.48;1682159;84;21086;-69
2022/07/28 03:03:19;;;;;;;6.58;5.00;;;;;;;17.31;100.00;100132.70;1663169;86;21152;-69
2022/07/28 03:05:46;;;;;;;6.55;4.90;;;;;;;17.36;100.00;100130.58;1662929;86;21132;-69
2022/07/28 03:08:15;;;;;;;6.58;4.72;;;;;;;17.44;100.00;100121.23;1662910;86;21068;-68
2022/07/28 03:10:42;;;;;;;8.83;5.12;;;;;;;17.55;100.00;100133.38;1662732;86;21095;-68
2022/07/28 03:13:08;;;;;;;6.60;5.10;;;;;;;17.62;100.00;100130.67;1663055;86;21081;-70
2022/07/28 03:15:38;;;;;;;7.97;4.60;;;;;;;17.70;100.00;100131.52;1662842;86;21044;-69
2022/07/28 03:18:05;;;;;;;7.87;4.70;;;;;;;17.79;100.00;100130.91;1663147;86;21068;-68
2022/07/28 03:20:33;;;;;;;9.35;4.92;;;;;;;17.91;100.00;100141.24;1662794;86;21111;-68
2022/07/28 03:23:01;;;;;;;5.25;4.12;;;;;;;18.00;100.00;100143.28;1662790;86;21199;-68
2022/07/28 03:25:36;;;;;;;5.42;4.58;;;;;;;18.06;100.00;100148.20;1662632;86;21642;-69
2022/07/28 03:28:04;;;;;;;6.08;4.87;;;;;;;18.12;100.00;100150.92;1656483;86;21037;-69
2022/07/28 03:30:36;;;;;;;5.35;4.53;;;;;;;18.14;100.00;100153.85;1650555;86;21129;-68
2022/07/28 03:33:02;;;;;;;5.05;4.28;;;;;;;18.15;100.00;100148.91;1684238;85;21312;-68
2022/07/28 03:35:30;;;;;;;7.83;4.33;;;;;;;18.14;100.00;100139.19;1684117;85;21597;-69
2022/07/28 03:38:13;;;;;;;6.28;4.72;;;;;;;18.12;100.00;100145.10;1684256;85;21056;-68
2022/07/28 03:40:40;;;;;;;5.70;4.15;;;;;;;18.10;100.00;100149.68;1684358;84;21108;-68
2022/07/28 03:43:11;;;;;;;7.00;4.40;;;;;;;18.06;100.00;100138.87;1684425;85;21041;-68
2022/07/28 03:45:38;;;;;;;7.05;4.08;;;;;;;18.05;100.00;100134.98;1684014;84;21681;-68
2022/07/28 03:48:06;;;;;;;5.10;3.70;;;;;;;18.38;100.00;100142.45;1674678;85;21502;-68
2022/07/28 03:50:33;;;;;;;3.90;3.42;;;;;;;18.95;100.00;100135.34;1684744;84;21064;-68
2022/07/28 03:53:03;;;;;;;4.83;3.75;;;;;;;19.25;100.00;100132.25;1684490;85;21026;-68
2022/07/28 03:55:30;;;;;;;5.65;4.00;;;;;;;19.25;100.00;100134.08;1628827;86;21089;-69
2022/07/28 03:57:56;;;;;;;4.70;3.85;;;;;;;19.16;100.00;100136.09;1651143;86;21136;-69
2022/07/28 04:00:24;;;;;;;5.15;3.92;;;;;;;19.35;100.00;100139.13;1650900;86;21243;-69
2022/07/28 04:02:51;;;;;;;5.17;4.12;;;;;;;19.76;100.00;100145.05;1650728;86;21061;-69
2022/07/28 04:05:18;;;;;;;5.75;3.65;;;;;;;20.26;100.00;100147.88;1650674;86;21608;-67
2022/07/28 04:07:47;;;;;;;6.40;3.67;;;;;;;20.89;100.00;100143.45;1650634;86;21612;-68
2022/07/28 04:10:15;;;;;;;5.53;3.40;;;;;;;21.34;100.00;100146.07;1650629;86;21136;-69
2022/07/28 04:12:48;;;;;;;4.15;3.02;;;;;;;21.77;100.00;100147.92;1650856;86;21284;-67
2022/07/28 04:15:15;;;;;;;4.95;3.08;;;;;;;22.19;100.00;100155.99;1650720;86;21155;-68
2022/07/28 04:17:42;;;;;;;8.48;3.12;;;;;;;22.60;95.25;100152.45;1650833;86;21596;-69
2022/07/28 04:20:11;;;;;;;4.12;2.75;;;;;;;22.93;93.00;100149.13;1650861;86;21065;-68
2022/07/28 04:22:38;;;;;;;6.72;2.75;;;;;;;23.33;90.35;100154.14;1650754;86;21084;-69
2022/07/28 04:25:06;;;;;;;5.10;2.70;;;;;;;23.61;86.13;100155.20;1650372;86;21254;-68
2022/07/28 04:27:35;;;;;;;5.70;2.65;;;;;;;23.87;83.63;100156.35;1650280;86;21630;-68
2022/07/28 04:30:04;;;;;;;3.25;2.37;;;;;;;24.18;82.13;100155.33;1655127;86;21104;-68
2022/07/28 04:32:31;;;;;;;5.10;2.60;;;;;;;24.38;78.88;100158.84;1657941;86;21409;-70
2022/07/28 04:34:58;;;;;;;5.00;2.52;;;;;;;24.48;76.65;100161.91;1658131;86;21100;-69
2022/07/28 04:37:26;;;;;;;5.30;2.92;;;;;;;24.44;76.87;100168.53;1657866;86;21324;-69
2022/07/28 04:39:53;;;;;;;6.15;2.50;;;;;;;24.54;75.39;100171.23;1657818;86;21060;-67
2022/07/28 04:42:21;;;;;;;6.10;2.47;;;;;;;24.76;73.95;100180.81;1657987;86;21077;-68
2022/07/28 04:44:48;;;;;;;10.23;2.47;;;;;;;24.91;71.21;100172.61;1658023;86;21079;-68
2022/07/28 04:47:15;;;;;;;7.03;2.40;;;;;;;25.15;70.39;100171.22;1657946;86;21116;-69
2022/07/28 04:49:43;;;;;;;5.97;2.27;;;;;;;25.48;68.80;100168.91;1658000;86;21049;-68
2022/07/28 04:52:11;;;;;;;6.65;2.30;;;;;;;25.59;65.99;100171.39;1657939;86;21064;-68
2022/07/28 04:54:40;;;;;;;3.37;1.90;;;;;;;25.78;66.61;100169.05;1658092;85;21143;-69
2022/07/28 04:57:10;;;;;;;5.15;2.20;;;;;;;26.08;64.64;100173.22;1658183;86;28204;-68
2022/07/28 04:59:37;;;;;;;4.03;2.12;;;;;;;26.31;62.27;100176.77;1658177;86;21013;-68
2022/07/28 05:02:04;;;;;;;5.58;2.27;;;;;;;26.41;62.03;100173.97;1658177;86;21171;-69
2022/07/28 05:04:32;;;;;;;5.60;2.25;;;;;;;26.58;61.73;100176.66;1658041;86;21308;-68
2022/07/28 05:06:59;;;;;;;7.78;2.33;;;;;;;26.74;61.20;100176.42;1658048;86;21033;-68
2022/07/28 05:09:28;;;;;;;7.65;2.10;;;;;;;26.94;61.38;100169.77;1657926;86;21632;-67
2022/07/28 05:11:54;;;;;;;4.03;2.25;;;;;;;27.25;60.13;100172.45;1658084;86;21058;-68
2022/07/28 05:14:21;;;;;;;6.50;2.20;;;;;;;27.45;59.51;100173.00;1658066;86;21788;-69
2022/07/28 05:16:48;;;;;;;9.75;2.20;;;;;;;27.57;58.59;100173.05;1657903;86;21079;-69
2022/07/28 05:19:16;;;;;;;7.05;2.00;;;;;;;27.63;56.80;100175.09;1658066;86;21029;-68
2022/07/28 05:21:42;;;;;;;5.10;2.20;;;;;;;27.46;56.13;100178.77;1658086;86;21068;-68
2022/07/28 05:24:09;;;;;;;8.15;2.40;;;;;;;27.41;56.02;100182.80;1658169;86;21092;-69
2022/07/28 05:26:35;;;;;;;3.92;2.00;;;;;;;27.49;55.24;100182.48;1657920;86;21232;-69
2022/07/28 05:29:02;;;;;;;6.28;2.35;;;;;;;27.47;55.77;100187.20;1658137;86;21053;-69
2022/07/28 05:31:29;;;;;;;4.67;2.20;;;;;;;27.75;55.39;100184.58;1658150;86;21059;-70
2022/07/28 05:33:56;;;;;;;5.78;2.30;;;;;;;27.98;54.39;100185.31;1658254;86;21034;-68
2022/07/28 05:36:23;;;;;;;8.10;1.95;;;;;;;28.27;54.13;100175.82;1658051;86;21048;-70
2022/07/28 05:38:49;;;;;;;7.03;2.20;;;;;;;28.43;53.04;100179.86;1658357;86;21130;-69
2022/07/28 05:41:16;;;;;;;7.20;1.90;;;;;;;28.55;52.21;100184.44;1657816;86;21064;-68
2022/07/28 05:43:43;;;;;;;4.17;2.12;;;;;;;28.48;50.04;100182.09;1657962;86;21569;-69
2022/07/28 05:46:10;;;;;;;4.47;1.98;;;;;;;28.42;50.11;100191.72;1657942;86;21076;-69
2022/07/28 05:48:36;;;;;;;4.25;2.05;;;;;;;28.31;49.10;100189.36;1658190;86;21089;-69
2022/07/28 05:51:04;;;;;;;5.45;1.90;;;;;;;28.15;48.92;100186.99;1657890;86;21064;-69
2022/07/28 05:53:31;;;;;;;5.25;2.22;;;;;;;27.92;48.63;100188.69;1677016;83;21057;-67
2022/07/28 05:55:58;;;;;;;5.30;2.10;;;;;;;27.98;45.91;100186.16;1720636;82;21039;-68
2022/07/28 05:58:25;;;;;;;8.33;2.67;;;;;;;28.32;44.63;100190.56;1720708;83;21016;-70
2022/07/28 06:00:51;;;;;;;6.53;2.55;;;;;;;28.39;43.88;100192.05;1721157;83;21496;-69
2022/07/28 06:03:18;;;;;;;4.35;2.10;;;;;;;28.34;43.75;100198.48;1720766;83;21493;-69
2022/07/28 06:05:46;;;;;;;6.95;2.52;;;;;;;28.36;43.45;100197.30;1720786;82;21639;-69
2022/07/28 06:08:13;;;;;;;15.83;2.98;;;;;;;28.43;42.65;100207.78;1720543;82;21059;-69
2022/07/28 06:10:58;;;;;;;5.80;2.15;;;;;;;28.36;42.55;100215.42;1720816;83;21121;-69
2022/07/28 06:13:25;;;;;;;7.70;2.75;;;;;;;28.47;43.41;100218.33;1720595;83;21618;-69
2022/07/28 06:15:52;;;;;;;7.75;1.72;;;;;;;28.49;41.30;100219.84;1720961;83;21108;-68
2022/07/28 06:18:20;;;;;;;6.90;2.17;;;;;;;28.17;41.44;100221.52;1720388;83;21023;-68
2022/07/28 06:20:49;;;;;;;9.68;2.33;;;;;;;28.02;41.91;100221.83;1721039;83;21012;-69
2022/07/28 06:23:22;;;;;;;6.15;2.25;;;;;;;28.23;41.54;100214.59;1720792;83;21047;-69
2022/07/28 06:25:47;;;;;;;6.25;2.40;;;;;;;28.33;41.56;100232.02;1720260;83;22223;-68
2022/07/28 06:28:14;;;;;;;6.80;2.10;;;;;;;28.43;41.07;100234.87;1720838;83;21118;-68
2022/07/28 06:30:41;;;;;;;7.35;1.85;;;;;;;28.52;40.09;100237.10;1720436;82;21031;-68
2022/07/28 06:33:08;;;;;;;6.75;1.98;;;;;;;28.47;40.81;100242.70;1720463;82;21055;-69
2022/07/28 06:35:35;;;;;;;5.40;1.60;;;;;;;28.64;41.16;100237.59;1720715;83;21131;-71
2022/07/28 06:38:01;;;;;;;4.90;2.00;;;;;;;28.76;39.29;100238.08;1720658;83;21016;-69
2022/07/28 06:40:30;;;;;;;3.65;1.55;;;;;;;28.62;39.75;100240.49;1720401;83;21150;-69
2022/07/28 06:42:56;;;;;;;5.55;1.60;;;;;;;28.66;39.31;100248.59;1720568;83;21115;-69
2022/07/28 06:45:23;;;;;;;7.60;1.80;;;;;;;28.72;38.40;100243.02;1720722;83;21095;-69
2022/07/28 06:47:50;;;;;;;4.00;1.75;;;;;;;28.77;38.50;100241.14;1720565;83;21055;-69
2022/07/28 06:50:17;;;;;;;4.42;1.80;;;;;;;28.91;38.67;100244.49;1720599;83;21067;-69
2022/07/28 06:52:44;;;;;;;5.42;1.87;;;;;;;29.20;38.07;100251.23;1720304;83;21553;-68
2022/07/28 06:55:14;;;;;;;4.58;1.95;;;;;;;29.49;37.48;100248.73;1720192;82;22092;-71
2022/07/28 06:57:42;;;;;;;5.08;1.80;;;;;;;29.60;37.34;100248.00;1720590;83;21093;-68
2022/07/28 07:00:12;;;;;;;4.00;1.85;;;;;;;29.73;37.01;100241.52;1720567;83;21065;-69
2022/07/28 07:02:40;;;;;;;4.80;1.90;;;;;;;29.82;37.39;100240.44;1720513;83;21121;-69
2022/07/28 07:05:08;;;;;;;5.17;1.50;;;;;;;30.07;37.14;100246.55;1720873;83;21211;-68
2022/07/28 07:07:36;;;;;;;2.72;1.40;;;;;;;30.12;36.06;100244.65;1720423;83;21550;-71
2022/07/28 07:10:04;;;;;;;5.37;1.40;;;;;;;29.95;36.33;100248.49;1720657;83;21058;-69
2022/07/28 07:12:34;;;;;;;4.08;1.60;;;;;;;29.84;36.77;100253.33;1720532;83;21645;-68
2022/07/28 07:15:04;;;;;;;6.30;2.15;;;;;;;29.82;36.12;100254.02;1720641;82;21306;-70
2022/07/28 07:17:32;;;;;;;5.92;1.60;;;;;;;29.62;36.61;100250.86;1720352;83;21093;-69
2022/07/28 07:20:00;;;;;;;3.72;1.60;;;;;;;29.68;36.67;100249.36;1720637;83;21064;-69
2022/07/28 07:22:27;;;;;;;2.70;1.60;;;;;;;29.83;36.12;100248.91;1720786;83;21133;-68
2022/07/28 07:24:53;;;;;;;6.35;1.77;;;;;;;29.88;36.01;100252.44;1720365;83;21029;-69
2022/07/28 07:27:21;;;;;;;4.92;1.70;;;;;;;29.89;35.61;100245.48;1720404;83;21616;-69
2022/07/28 07:29:48;;;;;;;3.60;1.37;;;;;;;29.89;36.03;100249.55;1720934;82;21368;-68
2022/07/28 07:32:14;;;;;;;4.25;1.57;;;;;;;30.10;36.54;100243.46;1725780;82;21009;-70
2022/07/28 07:34:43;;;;;;;4.95;1.60;;;;;;;30.40;34.91;100237.33;1726004;82;21768;-70
2022/07/28 07:37:12;;;;;;;5.22;1.80;;;;;;;30.66;34.47;100238.26;1725851;82;21032;-70
2022/07/28 07:39:38;;;;;;;6.78;1.25;;;;;;;30.71;34.02;100238.05;1725958;82;21008;-69
2022/07/28 07:43:09;;;;;;;3.65;1.50;;;;;;;30.84;32.74;100243.35;1795782;79;22507;-69
2022/07/28 07:46:28;;;;;;;5.80;1.85;;;;;;;30.86;33.68;100248.13;1756567;81;21053;-69
2022/07/28 07:49:01;;;;;;;7.60;1.52;;;;;;;30.93;34.17;100245.82;1756269;81;21802;-69
2022/07/28 07:51:28;;;;;;;7.78;1.27;;;;;;;31.06;33.31;100253.83;1750704;81;21033;-69
2022/07/28 07:53:54;;;;;;;3.90;1.40;;;;;;;31.14;33.27;100246.42;1777835;80;21482;-69
2022/07/28 07:56:21;;;;;;;3.87;1.30;;;;;;;31.24;33.30;100247.49;1790512;80;21557;-68
2022/07/28 07:58:48;;;;;;;4.42;1.37;;;;;;;31.34;33.08;100252.14;1790733;80;21036;-69
2022/07/28 08:01:15;;;;;;;3.33;1.35;;;;;;;31.51;33.40;100255.52;1790962;80;21206;-70
2022/07/28 08:03:43;;;;;;;8.28;1.65;;;;;;;31.67;32.79;100263.15;1790736;80;21521;-69
2022/07/28 08:06:10;;;;;;;4.30;1.40;;;;;;;31.67;32.79;100263.15;1790853;80;21017;-69
2022/07/28 08:08:36;;;;;;;5.40;1.42;;;;;;;31.62;32.67;100261.53;1790738;80;21068;-71
2022/07/28 08:11:05;;;;;;;2.62;1.30;;;;;;;31.69;32.77;100263.81;1790638;80;21087;-70
2022/07/28 08:13:31;;;;;;;5.08;1.90;;;;;;;31.84;32.72;100263.75;1790602;80;21927;-69
2022/07/28 08:15:58;;;;;;;5.33;1.50;;;;;;;31.97;32.90;100259.33;1790640;80;21067;-69
2022/07/28 08:18:25;;;;;;;4.20;1.32;;;;;;;32.08;32.60;100259.87;1790760;80;21029;-68
2022/07/28 08:20:51;;;;;;;5.25;1.30;;;;;;;32.17;32.49;100255.45;1790573;80;20989;-70
2022/07/28 08:23:18;;;;;;;5.45;1.15;;;;;;;31.98;32.06;100256.95;1790391;80;21107;-69
2022/07/28 08:25:45;;;;;;;4.03;1.30;;;;;;;31.89;31.77;100258.07;1790524;80;21539;-70
2022/07/28 08:28:13;;;;;;;4.00;1.07;;;;;;;31.69;33.03;100259.20;1790353;80;21056;-70
2022/07/28 08:30:40;;;;;;;8.10;1.30;;;;;;;31.67;32.86;100254.45;1790512;80;21052;-68
2022/07/28 08:33:07;;;;;;;3.75;0.90;;;;;;;31.77;32.54;100260.95;1790345;80;21040;-70
2022/07/28 08:35:34;;;;;;;2.40;1.12;;;;;;;31.74;31.53;100274.95;1790480;80;21064;-69
2022/07/28 08:38:04;;;;;;;2.87;1.10;;;;;;;31.65;31.68;100270.14;1790310;80;21776;-70
2022/07/28 08:40:31;;;;;;;;;;;;;;;31.67;31.27;100271.31;1793042;80;21008;-69
2022/07/28 08:43:10;;;;;;;7.47;1.10;;;;;;;31.76;31.46;100268.81;1786218;80;20205;-70
2022/07/28 08:45:38;;;;;;;4.08;0.98;;;;;;;32.06;30.11;100266.02;1785204;80;21553;-70
2022/07/28 08:48:06;;;;;;;2.35;0.80;;;;;;;32.10;29.08;100259.16;1785256;80;21009;-68
2022/07/28 08:50:33;;;;;;;3.45;1.10;;;;;;;31.91;29.75;100264.67;1785200;80;21537;-69
2022/07/28 08:52:59;;;;;;;2.62;1.15;;;;;;;31.85;30.10;100267.66;1784816;80;20990;-70
2022/07/28 08:55:27;;;;;;;5.72;1.10;;;;;;;31.88;29.92;100272.70;1756886;80;21064;-70
2022/07/28 08:57:55;;;;;;;3.35;1.20;;;;;;;31.89;30.09;100266.24;1753612;81;21520;-69
2022/07/28 09:00:23;;;;;;;3.20;1.00;;;;;;;31.96;30.33;100265.83;1753713;81;21095;-69
2022/07/28 09:02:50;;;;;;;3.83;1.05;;;;;;;32.07;29.25;100260.88;1753611;81;21140;-69
2022/07/28 09:05:19;;;;;;;4.35;1.40;;;;;;;32.09;29.28;100262.91;1753450;81;21079;-71
2022/07/28 09:07:51;;;;;;;6.83;1.30;;;;;;;31.90;30.15;100264.35;1754028;81;21067;-69
2022/07/28 09:10:18;;;;;;;2.77;1.10;;;;;;;31.82;30.27;100266.69;1753607;81;21021;-68
2022/07/28 09:12:46;;;;;;;3.47;1.00;;;;;;;31.85;29.04;100265.45;1753602;81;21041;-69
2022/07/28 09:15:14;;;;;;;6.08;1.20;;;;;;;31.83;29.97;100264.80;1753496;81;21097;-69
2022/07/28 09:17:41;;;;;;;5.75;1.12;;;;;;;31.87;29.64;100267.47;1753952;81;21028;-71
2022/07/28 09:20:09;;;;;;;7.53;1.47;;;;;;;31.85;29.57;100264.94;1753592;81;21012;-69
2022/07/28 09:22:56;;;;;;;5.47;1.40;;;;;;;31.96;29.20;100269.91;1753595;81;21107;-70
2022/07/28 09:25:22;;;;;;;2.85;1.25;;;;;;;32.11;29.07;100267.64;1730359;81;21071;-70
2022/07/28 09:27:50;;;;;;;3.15;1.35;;;;;;;32.08;29.29;100280.30;1753621;81;21132;-69
2022/07/28 09:30:29;;;;;;;7.12;1.60;;;;;;;32.07;29.14;100273.14;1753471;81;21040;-69
2022/07/28 09:33:18;;;;;;;4.25;1.30;;;;;;;31.96;29.20;100279.44;1753517;81;21561;-69
2022/07/28 09:44:18;;;;;;;4.53;1.45;;;;;;;32.20;29.53;100277.37;1758252;80;21083;-70
2022/07/28 09:46:45;;;;;;;4.17;1.35;;;;;;;32.36;28.49;100280.36;1773563;80;21576;-71
2022/07/28 09:49:14;;;;;;;2.40;1.20;;;;;;;32.49;28.06;100281.01;1773404;80;21033;-69
2022/07/28 09:51:41;;;;;;;4.37;1.45;;;;;;;32.34;28.06;100280.54;1774264;80;20989;-70
2022/07/28 09:54:13;;;;;;;6.83;1.75;;;;;;;32.42;28.94;100284.17;1776278;80;21072;-70
2022/07/28 09:56:43;;;;;;;4.65;1.40;;;;;;;32.70;28.50;100279.63;1776208;80;21769;-70
2022/07/28 09:59:11;;;;;;;6.67;1.43;;;;;;;32.82;28.42;100278.56;1776165;80;21592;-69
2022/07/28 10:01:57;;;;;;;5.67;1.50;;;;;;;32.85;28.34;100286.86;1776170;80;21017;-70
2022/07/28 10:04:39;;;;;;;6.53;1.52;;;;;;;32.96;28.26;100279.50;1775975;80;21088;-70
2022/07/28 10:07:13;;;;;;;6.22;1.72;;;;;;;33.14;27.74;100281.22;1775830;80;21080;-72
2022/07/28 10:09:42;;;;;;;4.15;1.42;;;;;;;33.38;26.80;100272.21;1776152;80;21485;-71
2022/07/28 10:12:21;;;;;;;5.40;1.52;;;;;;;33.27;27.00;100279.59;1775918;80;21037;-70
2022/07/28 10:14:50;;;;;;;6.92;1.85;;;;;;;33.33;25.92;100276.08;1776111;80;21029;-70
2022/07/28 10:17:32;;;;;;;4.70;1.17;;;;;;;33.25;27.49;100281.72;1775944;80;21009;-70
2022/07/28 10:20:04;;;;;;;2.98;1.12;;;;;;;33.23;27.15;100280.02;1775864;80;21025;-71
2022/07/28 10:22:36;;;;;;;3.62;1.50;;;;;;;33.35;27.46;100280.81;1775248;80;21072;-70
2022/07/28 10:25:15;;;;;;;3.27;1.52;;;;;;;33.51;27.01;100285.09;1776128;80;22044;-70
2022/07/28 10:27:41;;;;;;;4.22;1.55;;;;;;;33.54;26.82;100282.78;1775418;80;21080;-70
2022/07/28 10:30:09;;;;;;;3.37;1.37;;;;;;;33.54;25.94;100284.14;1776018;80;20986;-69
2022/07/28 10:32:40;;;;;;;4.08;1.55;;;;;;;33.69;26.00;100283.20;1775581;80;21573;-70
2022/07/28 10:35:15;;;;;;;4.72;1.60;;;;;;;33.72;25.98;100285.52;1776187;80;21247;-71
2022/07/28 10:38:12;;;;;;;10.23;1.70;;;;;;;33.73;26.04;100274.40;1775046;80;21005;-71
2022/07/28 10:40:42;;;;;;;3.85;1.40;;;;;;;33.79;25.68;100276.29;1775691;80;21041;-69
2022/07/28 10:43:09;;;;;;;3.50;1.40;;;;;;;33.45;25.65;100282.62;1775550;80;21001;-72
2022/07/28 10:45:40;;;;;;;3.40;1.60;;;;;;;32.92;26.49;100283.66;1770172;80;21064;-71
2022/07/28 10:48:07;;;;;;;4.62;1.77;;;;;;;32.73;26.63;100273.77;1767959;80;21094;-71
2022/07/28 10:50:34;;;;;;;4.83;1.40;;;;;;;32.56;26.98;100276.48;1767936;81;21526;-69
2022/07/28 10:53:02;;;;;;;7.75;1.70;;;;;;;32.46;27.60;100282.73;1768126;80;21049;-70
2022/07/28 10:55:48;;;;;;;4.12;1.42;;;;;;;32.55;26.24;100270.16;1745720;81;21084;-70
2022/07/28 10:58:28;;;;;;;5.65;1.80;;;;;;;32.46;27.41;100277.29;1767932;80;21062;-70
2022/07/28 11:00:54;;;;;;;4.80;1.52;;;;;;;32.64;27.70;100280.41;1767976;80;21096;-70
2022/07/28 11:03:43;;;;;;;3.30;1.50;;;;;;;32.96;27.20;100281.70;1767623;81;21060;-69
2022/07/28 11:06:35;;;;;;;7.67;1.40;;;;;;;33.22;26.09;100282.44;1767746;80;21061;-70
2022/07/28 11:09:21;;;;;;;6.17;1.37;;;;;;;33.19;26.58;100280.62;1767449;80;21554;-69
2022/07/28 11:11:58;;;;;;;7.60;1.60;;;;;;;33.15;26.57;100282.92;1768147;80;20993;-69
2022/07/28 11:14:34;;;;;;;3.83;1.42;;;;;;;33.04;26.54;100282.08;1768178;80;21604;-68
2022/07/28 11:17:10;;;;;;;6.45;1.75;;;;;;;32.96;27.32;100286.31;1768230;80;21373;-69
2022/07/28 11:19:50;;;;;;;8.90;1.80;;;;;;;32.90;26.96;100287.97;1767676;80;21680;-69
2022/07/28 11:22:21;;;;;;;7.17;1.60;;;;;;;32.80;26.62;100282.01;1767416;80;21033;-71
2022/07/28 11:25:00;;;;;;;;;;;;;;;32.92;25.86;100277.70;1770984;80;21049;-69
2022/07/28 11:27:45;;;;;;;4.12;1.37;;;;;;;33.07;25.56;100284.96;1767790;81;21103;-69
2022/07/28 11:30:30;;;;;;;3.33;1.37;;;;;;;33.11;26.37;100289.82;1765452;80;21088;-70
2022/07/28 11:32:58;;;;;;;5.08;1.45;;;;;;;32.96;26.46;100280.86;1768851;80;21026;-69
2022/07/28 11:35:26;;;;;;;2.17;1.20;;;;;;;32.89;25.34;100279.98;1767629;80;21077;-70
2022/07/28 11:38:09;;;;;;;6.35;1.37;;;;;;;32.79;25.15;100271.63;1767902;80;21061;-70
2022/07/28 11:40:40;;;;;;;1.82;1.17;;;;;;;32.73;25.99;100273.77;1767785;80;21737;-69
2022/07/28 11:43:29;;;;;;;;;;;;;;;32.75;24.97;100274.42;1770524;80;21037;-70
2022/07/28 11:46:08;;;;;;;4.05;1.55;;;;;;;32.69;25.52;100264.30;1766955;80;20186;-70